Time;durP1;ratioP1;P1;durP2;ratioP2;P2;SDS_P1;SDS_P2;PMS_P1;PMS_P2;Temp;Humidity;BMP_temperature;BMP_pressure;BME280_temperature;BME280_humidity;BME280_pressure;Samples;Min_cycle;Max_cycle;Signal;HPM_P1;HPM_P2
2023/03/18 00:02:05;;;;;;;;;;;;;;;16.76;38.92;92854.09;5103342;28;20410;-90
2023/03/18 00:04:31;;;;;;;;;;;;;;;16.74;38.44;92862.03;5081435;28;19928;-91
2023/03/18 00:06:56;;;;;;;;;;;;;;;16.75;38.45;92863.53;5102408;28;20414;-91
2023/03/18 00:09:21;;;;;;;;;;;;;;;16.73;38.54;92853.13;5074128;28;19928;-90
2023/03/18 00:11:47;;;;;;;;;;;;;;;16.74;38.94;92862.78;5070793;28;19924;-92
2023/03/18 00:14:12;;;;;;;;;;;;;;;16.76;38.93;92859.53;5086674;28;19927;-91
2023/03/18 00:16:37;;;;;;;;;;;;;;;16.75;38.88;92864.25;5067008;28;19928;-89
2023/03/18 00:19:03;;;;;;;;;;;;;;;16.74;38.84;92862.03;5066939;28;19920;-89
2023/03/18 00:21:28;;;;;;;;;;;;;;;16.73;38.87;92868.75;5084939;28;19935;-90
2023/03/18 00:23:55;;;;;;;;;;;;;;;16.74;38.57;92867.50;5051383;28;19931;-91
2023/03/18 00:26:22;;;;;;;;;;;;;;;16.73;39.07;92874.94;5067981;28;19963;-91
2023/03/18 00:28:47;;;;;;;;;;;;;;;16.74;39.02;92870.22;5069584;28;19921;-90
2023/03/18 00:31:14;;;;;;;;;;;;;;;16.75;38.78;92871.72;5068773;28;19924;-91
2023/03/18 00:33:39;;;;;;;;;;;;;;;16.75;38.57;92869.72;5070161;28;19955;-90
2023/03/18 00:36:08;;;;;;;;;;;;;;;16.74;38.56;92865.50;5085632;28;19928;-91
2023/03/18 00:38:34;;;;;;;;;;;;;;;16.75;38.84;92866.25;5086487;28;19920;-90
2023/03/18 00:41:12;;;;;;;;;;;;;;;16.73;38.83;92863.28;5085653;28;19936;-90
2023/03/18 00:43:45;;;;;;;;;;;;;;;16.74;38.92;92859.31;5068343;28;20466;-89
2023/03/18 00:46:17;;;;;;;;;;;;;;;16.75;38.66;92866.25;5067281;28;20488;-90
2023/03/18 00:48:43;;;;;;;;;;;;;;;16.75;38.63;92871.72;5051465;28;19928;-92
2023/03/18 00:51:12;;;;;;;;;;;;;;;16.73;38.96;92876.94;5084921;28;19958;-90
2023/03/18 00:53:38;;;;;;;;;;;;;;;16.74;38.77;92884.63;5052015;28;20080;-91
2023/03/18 00:56:04;;;;;;;;;;;;;;;16.74;38.97;92887.34;5051221;28;19924;-89
2023/03/18 00:58:30;;;;;;;;;;;;;;;16.74;38.89;92894.78;5068467;28;20480;-90
2023/03/18 01:00:55;;;;;;;;;;;;;;;16.73;38.69;92899.50;5067855;28;19928;-90
2023/03/18 01:03:24;;;;;;;;;;;;;;;16.74;38.92;92906.44;5067475;28;20036;-91
2023/03/18 01:05:50;;;;;;;;;;;;;;;16.73;38.85;92904.22;5086930;28;20448;-91
2023/03/18 01:08:16;;;;;;;;;;;;;;;16.71;38.49;92902.00;5087852;28;19925;-90
2023/03/18 01:10:41;;;;;;;;;;;;;;;16.73;38.85;92899.50;5088165;28;19924;-91
2023/03/18 01:13:06;;;;;;;;;;;;;;;16.73;38.86;92909.69;5071327;28;19936;-89
2023/03/18 01:15:33;;;;;;;;;;;;;;;16.72;38.67;92905.47;5089202;28;19987;-91
2023/03/18 01:17:58;;;;;;;;;;;;;;;16.71;38.79;92896.56;5087530;28;19924;-90
2023/03/18 01:20:24;;;;;;;;;;;;;;;16.69;38.65;92903.78;5053667;28;19921;-90
2023/03/18 01:22:50;;;;;;;;;;;;;;;16.67;38.81;92904.28;5071531;28;19920;-91
2023/03/18 01:25:15;;;;;;;;;;;;;;;16.68;38.67;92911.22;5071394;28;19920;-90
2023/03/18 01:27:41;;;;;;;;;;;;;;;16.68;38.93;92913.94;5089559;28;19925;-90
2023/03/18 01:30:08;;;;;;;;;;;;;;;16.68;38.93;92913.94;5072786;28;19951;-90
2023/03/18 01:32:33;;;;;;;;;;;;;;;16.68;38.88;92910.47;5072002;28;20327;-91
2023/03/18 01:34:58;;;;;;;;;;;;;;;16.68;38.92;92907.75;5072817;28;19932;-92
2023/03/18 01:37:24;;;;;;;;;;;;;;;16.68;38.64;92905.75;5090590;28;20031;-91
2023/03/18 01:39:50;;;;;;;;;;;;;;;16.67;38.58;92907.00;5087036;28;19959;-91
2023/03/18 01:42:17;;;;;;;;;;;;;;;16.67;38.99;92895.38;5070048;28;19972;-90
2023/03/18 01:44:42;;;;;;;;;;;;;;;16.67;38.71;92917.22;5072490;28;20458;-91
2023/03/18 01:47:09;;;;;;;;;;;;;;;16.67;38.56;92907.00;5070074;28;19971;-91
2023/03/18 01:49:37;;;;;;;;;;;;;;;16.66;39.22;92907.53;5088401;28;19969;-90
2023/03/18 01:52:04;;;;;;;;;;;;;;;16.68;39.00;92913.94;5054228;28;19928;-89
2023/03/18 01:54:31;;;;;;;;;;;;;;;16.68;38.77;92911.22;5054757;28;19927;-91
2023/03/18 01:56:56;;;;;;;;;;;;;;;16.69;38.76;92914.69;5070782;28;20442;-90
2023/03/18 01:59:22;;;;;;;;;;;;;;;16.68;38.84;92903.03;5069887;28;20017;-91
2023/03/18 02:01:57;;;;;;;;;;;;;;;16.68;38.57;92913.94;5070054;28;19929;-90
2023/03/18 02:04:24;;;;;;;;;;;;;;;16.69;38.73;92911.97;5088014;28;19939;-89
2023/03/18 02:06:49;;;;;;;;;;;;;;;16.69;38.68;92914.69;5088334;28;20492;-90
2023/03/18 02:09:15;;;;;;;;;;;;;;;16.69;38.65;92911.97;5087567;28;19924;-90
2023/03/18 02:11:41;;;;;;;;;;;;;;;16.68;39.03;92921.41;5054447;28;20602;-91
2023/03/18 02:14:07;;;;;;;;;;;;;;;16.66;38.87;92907.53;5070598;28;19921;-90
2023/03/18 02:16:34;;;;;;;;;;;;;;;16.66;38.62;92916.47;5088043;28;19920;-91
2023/03/18 02:19:01;;;;;;;;;;;;;;;16.67;38.57;92923.38;5086723;28;19921;-90
2023/03/18 02:21:43;;;;;;;;;;;;;;;16.68;38.96;92916.69;5087091;28;19950;-89
2023/03/18 02:24:27;;;;;;;;;;;;;;;16.67;38.75;92919.94;5053224;28;19939;-91
2023/03/18 02:26:59;;;;;;;;;;;;;;;16.66;38.64;92927.41;5071877;28;19972;-91
2023/03/18 02:29:24;;;;;;;;;;;;;;;16.65;38.92;92923.19;5072239;28;20383;-92
2023/03/18 02:31:50;;;;;;;;;;;;;;;16.66;38.67;92926.66;5071050;28;19954;-91
2023/03/18 02:34:15;;;;;;;;;;;;;;;16.66;39.05;92923.91;5069924;28;20302;-91
2023/03/18 02:36:40;;;;;;;;;;;;;;;16.67;38.75;92934.31;5070201;28;19928;-90
2023/03/18 02:39:06;;;;;;;;;;;;;;;16.66;38.93;92932.84;5069633;28;19924;-91
2023/03/18 02:41:32;;;;;;;;;;;;;;;16.65;38.63;92928.63;5070641;28;20178;-91
2023/03/18 02:43:57;;;;;;;;;;;;;;;16.65;39.09;92928.63;5054758;28;19987;-92
2023/03/18 02:46:29;;;;;;;;;;;;;;;16.66;38.83;92927.41;5070269;28;20014;-91
2023/03/18 02:48:54;;;;;;;;;;;;;;;16.66;38.68;92921.19;5053836;28;19920;-91
2023/03/18 02:51:20;;;;;;;;;;;;;;;16.66;38.72;92923.91;5069973;28;19931;-89
2023/03/18 02:53:46;;;;;;;;;;;;;;;16.67;38.99;92925.41;5069794;28;19921;-91
2023/03/18 02:56:11;;;;;;;;;;;;;;;16.66;38.98;92916.47;5053211;28;19931;-93
2023/03/18 02:58:37;;;;;;;;;;;;;;;16.65;38.70;92916.97;5087201;28;20379;-91
2023/03/18 03:01:06;;;;;;;;;;;;;;;16.63;39.23;92909.31;5086098;28;19928;-90
2023/03/18 03:03:33;;;;;;;;;;;;;;;16.64;39.02;92924.44;5070257;28;20007;-89
2023/03/18 03:05:59;;;;;;;;;;;;;;;16.64;38.87;92918.97;5069600;28;20001;-91
2023/03/18 03:08:24;;;;;;;;;;;;;;;16.64;38.97;92923.69;5069220;28;19932;-89
2023/03/18 03:10:51;;;;;;;;;;;;;;;16.63;39.18;92924.91;5069493;28;19932;-90
2023/03/18 03:13:17;;;;;;;;;;;;;;;16.62;39.06;92935.09;5067973;28;19924;-91
2023/03/18 03:15:42;;;;;;;;;;;;;;;16.62;39.13;92932.34;5070343;28;19924;-92
2023/03/18 03:18:07;;;;;;;;;;;;;;;16.64;38.72;92940.06;5085663;28;19935;-90
2023/03/18 03:20:34;;;;;;;;;;;;;;;16.63;38.76;92946.75;5053133;28;20275;-91
2023/03/18 03:23:00;;;;;;;;;;;;;;;16.61;39.19;92944.53;5102671;28;19932;-90
2023/03/18 03:25:26;;;;;;;;;;;;;;;16.59;38.77;92954.47;5085868;28;19924;-92
2023/03/18 03:27:52;;;;;;;;;;;;;;;16.58;38.78;92956.44;5086664;28;20276;-91
2023/03/18 03:30:17;;;;;;;;;;;;;;;16.60;39.07;92964.88;5053399;28;19921;-90
2023/03/18 03:32:43;;;;;;;;;;;;;;;16.61;38.73;92965.63;5070269;28;19929;-91
2023/03/18 03:35:10;;;;;;;;;;;;;;;16.59;38.72;92965.38;5070033;28;19920;-90
2023/03/18 03:37:36;;;;;;;;;;;;;;;16.61;38.85;92951.97;5070333;28;19924;-90
2023/03/18 03:40:01;;;;;;;;;;;;;;;16.62;38.80;92967.09;5053372;28;19955;-92
2023/03/18 03:42:26;;;;;;;;;;;;;;;16.59;38.78;92959.91;5052294;28;20276;-91
2023/03/18 03:44:52;;;;;;;;;;;;;;;16.60;39.13;92970.31;5070100;28;20092;-91
2023/03/18 03:47:17;;;;;;;;;;;;;;;16.61;39.10;92969.09;5068400;28;20312;-91
2023/03/18 03:49:42;;;;;;;;;;;;;;;16.62;38.63;92970.56;5084997;28;19931;-90
2023/03/18 03:52:07;;;;;;;;;;;;;;;16.62;38.69;92980.75;5069502;28;20034;-90
2023/03/18 03:54:33;;;;;;;;;;;;;;;16.62;38.76;92983.47;5085862;28;19920;-90
2023/03/18 03:56:58;;;;;;;;;;;;;;;16.61;39.18;92980.00;5102898;28;19928;-90
2023/03/18 03:59:24;;;;;;;;;;;;;;;16.63;38.69;92979.50;5051172;28;20330;-92
2023/03/18 04:01:50;;;;;;;;;;;;;;;16.61;39.11;92987.44;5069019;28;19930;-90
2023/03/18 04:04:15;;;;;;;;;;;;;;;16.61;39.12;92990.16;5069083;28;20362;-89
2023/03/18 04:06:41;;;;;;;;;;;;;;;16.61;38.94;92995.63;5068552;28;19932;-92
2023/03/18 04:09:06;;;;;;;;;;;;;;;16.59;38.90;92985.22;5085339;28;19920;-90
2023/03/18 04:11:31;;;;;;;;;;;;;;;16.59;38.98;92996.13;5084445;28;19979;-89
2023/03/18 04:13:56;;;;;;;;;;;;;;;16.60;38.70;92999.59;5084671;28;19921;-92
2023/03/18 04:16:22;;;;;;;;;;;;;;;16.60;38.77;92999.59;5085220;28;19928;-90
2023/03/18 04:18:47;;;;;;;;;;;;;;;16.60;39.00;92999.59;5067443;28;19978;-91
2023/03/18 04:21:12;;;;;;;;;;;;;;;16.59;38.90;93001.59;5079467;28;19933;-91
2023/03/18 04:23:37;;;;;;;;;;;;;;;16.61;39.04;93003.81;5067879;28;19930;-91
2023/03/18 04:26:04;;;;;;;;;;;;;;;16.60;38.70;93013.25;5084657;28;19951;-90
2023/03/18 04:28:29;;;;;;;;;;;;;;;16.59;38.93;93001.59;5069865;28;19924;-91
2023/03/18 04:30:55;;;;;;;;;;;;;;;16.59;38.96;93017.22;5085275;28;20436;-90
2023/03/18 04:33:21;;;;;;;;;;;;;;;16.56;39.06;93013.53;5068537;28;19928;-91
2023/03/18 04:35:46;;;;;;;;;;;;;;;16.59;39.14;93006.31;5068404;28;19920;-89
2023/03/18 04:38:11;;;;;;;;;;;;;;;16.59;38.94;93019.94;5068059;28;19973;-91
2023/03/18 04:40:37;;;;;;;;;;;;;;;16.58;38.90;93016.47;5089128;28;19936;-90
2023/03/18 04:43:02;;;;;;;;;;;;;;;16.58;38.74;93015.75;5088944;28;20263;-90
2023/03/18 04:45:28;;;;;;;;;;;;;;;16.57;39.05;93015.00;5088219;28;19931;-91
2023/03/18 04:47:53;;;;;;;;;;;;;;;16.58;38.94;93010.28;5072272;28;19964;-90
2023/03/18 04:50:19;;;;;;;;;;;;;;;16.58;39.18;93016.47;5071833;28;19924;-90
2023/03/18 04:52:44;;;;;;;;;;;;;;;16.58;39.15;93013.00;5055097;28;20042;-91
2023/03/18 04:55:10;;;;;;;;;;;;;;;16.59;39.08;93025.41;5088279;28;19970;-92
2023/03/18 04:57:36;;;;;;;;;;;;;;;16.58;39.15;93023.94;5089825;28;19942;-90
2023/03/18 05:00:04;;;;;;;;;;;;;;;16.57;39.04;93023.19;5089683;28;20596;-93
2023/03/18 05:02:30;;;;;;;;;;;;;;;16.56;38.71;93027.16;5089832;28;19928;-90
2023/03/18 05:04:55;;;;;;;;;;;;;;;16.57;39.09;93017.00;5090220;28;19932;-92
2023/03/18 05:07:21;;;;;;;;;;;;;;;16.57;39.20;93023.19;5089326;28;19927;-91
2023/03/18 05:09:47;;;;;;;;;;;;;;;16.58;38.77;93024.66;5072552;28;20023;-92
2023/03/18 05:12:13;;;;;;;;;;;;;;;16.58;38.72;93021.19;5054624;28;19967;-90
2023/03/18 05:14:39;;;;;;;;;;;;;;;16.59;38.79;93033.59;5072675;28;19920;-88
2023/03/18 05:17:04;;;;;;;;;;;;;;;16.58;39.24;93035.59;5105996;28;19970;-90
2023/03/18 05:19:29;;;;;;;;;;;;;;;16.57;38.69;93031.38;5088332;28;20128;-90
2023/03/18 05:21:54;;;;;;;;;;;;;;;16.56;39.03;93029.16;5089342;28;19921;-91
2023/03/18 05:24:20;;;;;;;;;;;;;;;16.56;38.74;93021.72;5072585;28;19920;-90
2023/03/18 05:26:45;;;;;;;;;;;;;;;16.57;39.17;93022.44;5072341;28;20065;-91
2023/03/18 05:29:10;;;;;;;;;;;;;;;16.57;38.94;93023.19;5072478;28;20307;-90
2023/03/18 05:31:35;;;;;;;;;;;;;;;16.57;38.91;93027.91;5072361;28;19920;-90
2023/03/18 05:34:01;;;;;;;;;;;;;;;16.58;38.80;93026.66;5073598;28;20316;-89
2023/03/18 05:36:26;;;;;;;;;;;;;;;16.57;39.00;93020.47;5089972;28;19920;-89
2023/03/18 05:38:51;;;;;;;;;;;;;;;16.55;39.19;93022.94;5073948;28;19984;-91
2023/03/18 05:41:17;;;;;;;;;;;;;;;16.57;38.72;93030.63;5108571;28;20280;-91
2023/03/18 05:43:42;;;;;;;;;;;;;;;16.57;38.72;93036.09;5108008;28;20397;-89
2023/03/18 05:46:07;;;;;;;;;;;;;;;16.58;38.98;93034.84;5089877;28;19968;-90
2023/03/18 05:48:33;;;;;;;;;;;;;;;16.59;39.24;93044.50;5074393;28;19921;-92
2023/03/18 05:50:58;;;;;;;;;;;;;;;16.60;38.88;93041.28;5072494;28;19924;-91
2023/03/18 05:53:23;;;;;;;;;;;;;;;16.58;38.95;93035.59;5073942;28;20056;-91
2023/03/18 05:55:48;;;;;;;;;;;;;;;16.58;38.75;93035.59;5073183;28;19944;-90
2023/03/18 05:58:15;;;;;;;;;;;;;;;16.58;38.74;93034.84;5089527;28;19921;-89
2023/03/18 06:00:40;;;;;;;;;;;;;;;16.58;38.67;93038.31;5089510;28;19975;-89
2023/03/18 06:03:05;;;;;;;;;;;;;;;16.58;38.71;93040.31;5106354;28;20023;-90
2023/03/18 06:05:30;;;;;;;;;;;;;;;16.58;38.99;93046.50;5072356;28;19928;-90
2023/03/18 06:07:56;;;;;;;;;;;;;;;16.57;38.99;93042.28;5071571;28;20386;-91
2023/03/18 06:10:21;;;;;;;;;;;;;;;16.57;38.75;93036.84;5071656;28;19930;-92
2023/03/18 06:12:48;;;;;;;;;;;;;;;16.60;38.74;93046.00;5089698;28;20349;-90
2023/03/18 06:15:14;;;;;;;;;;;;;;;16.59;38.72;93052.69;5074292;28;19935;-91
2023/03/18 06:17:39;;;;;;;;;;;;;;;16.59;38.53;93050.72;5088756;28;19978;-90
2023/03/18 06:20:10;;;;;;;;;;;;;;;16.62;38.86;93046.22;5088744;28;19921;-91
2023/03/18 06:22:35;;;;;;;;;;;;;;;16.61;38.74;93048.22;5073404;28;20004;-89
2023/03/18 06:25:03;;;;;;;;;;;;;;;16.61;38.59;93047.47;5086131;28;19976;-90
2023/03/18 06:27:28;;;;;;;;;;;;;;;16.61;38.83;93050.22;5089169;28;19921;-90
2023/03/18 06:29:54;;;;;;;;;;;;;;;16.62;38.90;93052.44;5090016;28;19924;-89
2023/03/18 06:32:20;;;;;;;;;;;;;;;16.64;38.97;93049.97;5088731;28;20053;-92
2023/03/18 06:34:45;;;;;;;;;;;;;;;16.65;39.04;93053.44;5105838;28;19928;-91
2023/03/18 06:37:11;;;;;;;;;;;;;;;16.66;38.97;93042.00;5054685;28;20413;-92
2023/03/18 06:39:36;;;;;;;;;;;;;;;16.68;38.79;93053.13;5054609;28;19921;-91
2023/03/18 06:42:01;;;;;;;;;;;;;;;16.71;38.60;93059.56;5090566;28;19931;-90
2023/03/18 06:44:26;;;;;;;;;;;;;;;16.71;38.79;93054.13;5109684;28;20347;-90
2023/03/18 06:46:52;;;;;;;;;;;;;;;16.71;39.11;93054.84;5092245;28;20144;-91
2023/03/18 06:49:17;;;;;;;;;;;;;;;16.73;39.08;93062.53;5083469;28;19947;-91
2023/03/18 06:51:43;;;;;;;;;;;;;;;16.73;38.99;93068.72;5083871;28;19928;-91
2023/03/18 06:54:09;;;;;;;;;;;;;;;16.75;38.83;93060.03;5098051;28;20275;-90
2023/03/18 06:56:37;;;;;;;;;;;;;;;16.74;38.85;93067.50;5059822;28;19927;-91
2023/03/18 06:59:05;;;;;;;;;;;;;;;16.77;38.65;93071.19;5094316;28;19925;-90
2023/03/18 07:01:31;;;;;;;;;;;;;;;16.77;38.46;93071.19;5100282;28;19924;-92
2023/03/18 07:03:57;;;;;;;;;;;;;;;16.78;38.72;93078.13;5109252;28;19947;-92
2023/03/18 07:06:23;;;;;;;;;;;;;;;16.79;38.83;93074.91;5085082;28;19964;-90
2023/03/18 07:08:48;;;;;;;;;;;;;;;16.82;38.83;93072.41;5052841;28;20011;-90
2023/03/18 07:11:13;;;;;;;;;;;;;;;16.84;38.80;93075.38;5050787;28;19929;-89
2023/03/18 07:13:39;;;;;;;;;;;;;;;16.80;38.53;93078.38;5066400;28;20144;-89
2023/03/18 07:16:04;;;;;;;;;;;;;;;16.78;38.94;93069.94;5049643;28;20464;-91
2023/03/18 07:18:29;;;;;;;;;;;;;;;16.79;38.81;93077.63;5089589;28;19934;-90
2023/03/18 07:20:54;;;;;;;;;;;;;;;16.82;38.93;93080.59;5060189;28;19927;-91
2023/03/18 07:23:20;;;;;;;;;;;;;;;16.82;39.02;93073.16;5057202;28;20260;-91
2023/03/18 07:25:46;;;;;;;;;;;;;;;16.82;38.70;93084.06;5091220;28;19947;-89
2023/03/18 07:28:11;;;;;;;;;;;;;;;16.81;38.89;93085.31;5088257;28;19921;-91
2023/03/18 07:30:37;;;;;;;;;;;;;;;16.84;39.08;93087.03;5049889;28;20346;-90
2023/03/18 07:33:02;;;;;;;;;;;;;;;16.87;38.97;93083.28;5048053;28;20003;-91
2023/03/18 07:35:27;;;;;;;;;;;;;;;16.87;38.85;93088.75;5061418;28;19920;-90
2023/03/18 07:37:53;;;;;;;;;;;;;;;16.87;38.97;93093.47;5071504;28;19984;-91
2023/03/18 07:40:18;;;;;;;;;;;;;;;16.87;39.03;93088.00;5070673;28;19920;-91
2023/03/18 07:42:43;;;;;;;;;;;;;;;16.86;38.85;93090.00;5083456;28;20306;-91
2023/03/18 07:45:09;;;;;;;;;;;;;;;16.89;39.06;93088.25;5072253;28;19943;-90
2023/03/18 07:47:34;;;;;;;;;;;;;;;16.90;38.55;93082.25;5055624;28;19978;-91
2023/03/18 07:49:59;;;;;;;;;;;;;;;16.92;38.10;93089.94;5055481;28;19974;-91
2023/03/18 07:52:24;;;;;;;;;;;;;;;16.93;37.77;93083.22;5054434;28;19916;-91
2023/03/18 07:54:51;;;;;;;;;;;;;;;16.95;37.63;93094.38;5053380;28;20396;-92
2023/03/18 07:57:16;;;;;;;;;;;;;;;16.94;37.31;93096.38;5060809;28;19921;-88
2023/03/18 07:59:42;;;;;;;;;;;;;;;16.93;37.39;93086.69;5082841;28;19930;-90
2023/03/18 08:02:10;;;;;;;;;;;;;;;16.94;38.07;93085.44;5092795;28;20223;-89
2023/03/18 08:04:36;;;;;;;;;;;;;;;16.95;38.34;93080.72;5091291;28;19924;-89
2023/03/18 08:07:02;;;;;;;;;;;;;;;16.94;38.23;93087.44;5075694;28;19942;-89
2023/03/18 08:09:27;;;;;;;;;;;;;;;16.94;38.73;93093.63;5053601;28;19923;-88
2023/03/18 08:11:52;;;;;;;;;;;;;;;16.96;38.61;93088.41;5053885;28;20045;-90
2023/03/18 08:14:18;;;;;;;;;;;;;;;16.97;38.34;93084.44;5055856;28;19920;-90
2023/03/18 08:16:46;;;;;;;;;;;;;;;16.98;38.38;93091.38;5077996;28;20489;-90
2023/03/18 08:19:11;;;;;;;;;;;;;;;16.98;38.77;93099.56;5059691;28;19920;-92
2023/03/18 08:21:37;;;;;;;;;;;;;;;17.00;38.68;93102.53;5056979;28;19924;-91
2023/03/18 08:24:02;;;;;;;;;;;;;;;17.00;38.45;93090.88;5056466;28;19941;-91
2023/03/18 08:26:28;;;;;;;;;;;;;;;17.01;38.54;93100.53;5085392;28;19927;-90
2023/03/18 08:28:53;;;;;;;;;;;;;;;17.01;38.49;93092.34;5075088;28;19928;-90
2023/03/18 08:31:18;;;;;;;;;;;;;;;17.01;38.87;93097.81;5076492;28;19989;-90
2023/03/18 08:33:44;;;;;;;;;;;;;;;17.01;38.92;93100.53;5075037;28;19966;-89
2023/03/18 08:36:11;;;;;;;;;;;;;;;17.00;38.54;93102.53;5093257;28;20312;-90
2023/03/18 08:38:36;;;;;;;;;;;;;;;17.03;38.66;93104.25;5088077;28;19963;-90
2023/03/18 08:41:02;;;;;;;;;;;;;;;17.04;38.39;93102.25;5052660;28;19921;-89
2023/03/18 08:43:28;;;;;;;;;;;;;;;17.05;38.85;93103.75;5049986;28;19920;-90
2023/03/18 08:45:53;;;;;;;;;;;;;;;17.05;38.43;93109.22;5075600;28;19972;-91
2023/03/18 08:48:20;;;;;;;;;;;;;;;17.05;38.59;93109.22;5103535;28;19920;-89
2023/03/18 08:50:45;;;;;;;;;;;;;;;17.06;38.51;93116.88;5049868;28;19989;-90
2023/03/18 08:53:11;;;;;;;;;;;;;;;17.06;38.76;93105.97;5085112;28;20019;-89
2023/03/18 08:55:37;;;;;;;;;;;;;;;17.07;38.81;93117.63;5087843;28;20041;-90
2023/03/18 08:58:04;;;;;;;;;;;;;;;17.07;38.76;93096.53;5089214;28;19957;-91
2023/03/18 09:00:29;;;;;;;;;;;;;;;17.06;38.56;93105.97;5069414;28;19920;-91
2023/03/18 09:02:54;;;;;;;;;;;;;;;17.05;39.14;93098.28;5069141;28;19924;-92
2023/03/18 09:05:20;;;;;;;;;;;;;;;17.06;38.64;93105.97;5048230;28;19932;-91
2023/03/18 09:07:45;;;;;;;;;;;;;;;17.07;39.17;93112.91;5065317;28;19924;-92
2023/03/18 09:10:12;;;;;;;;;;;;;;;17.08;39.15;93105.47;5065334;28;20272;-90
2023/03/18 09:12:37;;;;;;;;;;;;;;;17.08;39.10;93103.47;5065480;28;19927;-90
2023/03/18 09:15:04;;;;;;;;;;;;;;;17.08;38.63;93092.53;5082205;28;20426;-91
2023/03/18 09:17:30;;;;;;;;;;;;;;;17.07;38.88;93106.72;5081091;28;20011;-90
2023/03/18 09:19:56;;;;;;;;;;;;;;;17.06;38.97;93102.50;5049848;28;20079;-91
2023/03/18 09:22:21;;;;;;;;;;;;;;;17.06;39.11;93099.75;5049514;28;20425;-89
2023/03/18 09:24:47;;;;;;;;;;;;;;;17.07;38.76;93106.72;5083135;28;20353;-90
2023/03/18 09:27:13;;;;;;;;;;;;;;;17.10;38.95;93109.13;5051793;28;20401;-91
2023/03/18 09:29:38;;;;;;;;;;;;;;;17.09;39.05;93109.66;5069407;28;19978;-90
2023/03/18 09:32:04;;;;;;;;;;;;;;;17.10;38.83;93102.97;5086277;28;19955;-91
2023/03/18 09:34:30;;;;;;;;;;;;;;;17.11;39.11;93101.69;5085799;28;20604;-92
2023/03/18 09:36:57;;;;;;;;;;;;;;;17.10;39.11;93106.41;5086470;28;20267;-90
2023/03/18 09:39:22;;;;;;;;;;;;;;;17.10;38.82;93100.22;5085195;28;20270;-90
2023/03/18 09:42:01;;;;;;;;;;;;;;;17.10;39.27;93092.75;5069604;28;20015;-92
2023/03/18 09:44:28;;;;;;;;;;;;;;;17.12;39.05;93103.16;5069624;28;19956;-91
2023/03/18 09:47:09;;;;;;;;;;;;;;;17.12;39.23;93100.44;5069761;28;19925;-92
2023/03/18 09:49:41;;;;;;;;;;;;;;;17.12;39.14;93095.72;5032649;28;19967;-91
2023/03/18 09:52:22;;;;;;;;;;;;;;;17.12;39.05;93101.19;5060648;28;19925;-92
2023/03/18 09:54:56;;;;;;;;;;;;;;;17.12;39.36;93098.44;5087223;28;19920;-91
2023/03/18 09:57:23;;;;;;;;;;;;;;;17.12;39.23;93105.91;5085742;28;19924;-91
2023/03/18 09:59:54;;;;;;;;;;;;;;;17.12;38.97;93103.16;5067825;28;19976;-90
2023/03/18 10:02:22;;;;;;;;;;;;;;;17.11;39.25;93101.69;5084411;28;19920;-90
2023/03/18 10:04:55;;;;;;;;;;;;;;;17.12;39.08;93100.44;5084217;28;19942;-89
2023/03/18 10:07:21;;;;;;;;;;;;;;;17.13;39.01;93104.66;5066850;28;19928;-89
2023/03/18 10:09:53;;;;;;;;;;;;;;;17.14;38.97;93112.34;5047417;28;20174;-90
2023/03/18 10:12:34;;;;;;;;;;;;;;;17.14;38.99;93101.41;5047768;28;19929;-90
2023/03/18 10:15:13;;;;;;;;;;;;;;;17.15;38.93;93107.63;5058656;28;19928;-90
2023/03/18 10:17:42;;;;;;;;;;;;;;;17.15;39.11;93104.88;5075597;28;19931;-89
2023/03/18 10:20:12;;;;;;;;;;;;;;;17.16;39.18;93098.16;5030842;28;20277;-88
2023/03/18 10:22:57;;;;;;;;;;;;;;;17.18;39.33;93097.66;5048575;28;19943;-90
2023/03/18 10:25:32;;;;;;;;;;;;;;;17.18;39.24;93103.88;5081243;28;19935;-90
2023/03/18 10:27:59;;;;;;;;;;;;;;;17.18;39.37;93100.41;5048031;28;19927;-91
2023/03/18 10:30:25;;;;;;;;;;;;;;;17.18;39.36;93108.59;5031295;28;19921;-91
2023/03/18 10:33:03;;;;;;;;;;;;;;;17.18;39.48;93103.13;5047470;28;20336;-89
2023/03/18 10:35:30;;;;;;;;;;;;;;;17.18;39.53;93106.59;5036645;28;20011;-88
2023/03/18 10:37:55;;;;;;;;;;;;;;;17.19;39.13;93104.59;5071311;28;20394;-90
2023/03/18 10:40:21;;;;;;;;;;;;;;;17.19;39.14;93101.88;5085295;28;19972;-89
2023/03/18 10:42:46;;;;;;;;;;;;;;;17.18;39.54;93103.88;5085414;28;20331;-92
2023/03/18 10:45:17;;;;;;;;;;;;;;;17.17;39.25;93105.13;5046216;28;19925;-90
2023/03/18 10:47:44;;;;;;;;;;;;;;;17.16;39.36;93100.91;5046587;28;19954;-90
2023/03/18 10:50:16;;;;;;;;;;;;;;;17.16;39.61;93100.91;5030109;28;19929;-90
2023/03/18 10:52:44;;;;;;;;;;;;;;;17.17;39.35;93107.09;5058304;28;19970;-90
2023/03/18 10:55:14;;;;;;;;;;;;;;;17.17;39.67;93116.03;5066888;28;20136;-89
2023/03/18 10:57:40;;;;;;;;;;;;;;;17.18;39.68;93108.59;5083015;28;19947;-90
2023/03/18 11:00:08;;;;;;;;;;;;;;;17.17;39.31;93110.59;5063456;28;20535;-89
2023/03/18 11:02:34;;;;;;;;;;;;;;;17.17;39.61;93113.31;5062936;28;19948;-89
2023/03/18 11:05:04;;;;;;;;;;;;;;;17.17;39.49;93113.31;5057248;28;19967;-90
2023/03/18 11:07:30;;;;;;;;;;;;;;;17.18;39.42;93108.59;5062726;28;19924;-90
2023/03/18 11:09:55;;;;;;;;;;;;;;;17.17;39.53;93107.84;5065934;28;19931;-90
2023/03/18 11:12:29;;;;;;;;;;;;;;;17.16;39.52;93102.91;5065361;28;20012;-88
2023/03/18 11:14:55;;;;;;;;;;;;;;;17.16;39.58;93103.63;5049666;28;19928;-90
2023/03/18 11:17:21;;;;;;;;;;;;;;;17.15;39.65;93096.69;5075960;28;19924;-90
2023/03/18 11:19:47;;;;;;;;;;;;;;;17.14;39.66;93103.41;5066200;28;20150;-90
2023/03/18 11:22:22;;;;;;;;;;;;;;;17.13;39.90;93105.38;5065191;28;19924;-90
2023/03/18 11:25:00;;;;;;;;;;;;;;;17.16;39.61;93105.63;5049662;28;20059;-91
2023/03/18 11:27:33;;;;;;;;;;;;;;;17.14;39.71;93097.94;5064963;28;20370;-90
2023/03/18 11:29:59;;;;;;;;;;;;;;;17.16;39.51;93094.69;5060769;28;19970;-89
2023/03/18 11:32:27;;;;;;;;;;;;;;;17.17;39.53;93102.38;5064674;28;19925;-90
2023/03/18 11:34:57;;;;;;;;;;;;;;;17.18;39.53;93092.19;5100344;28;20391;-89
2023/03/18 11:37:26;;;;;;;;;;;;;;;17.18;39.73;93092.94;5081795;28;20393;-90
2023/03/18 11:39:52;;;;;;;;;;;;;;;17.20;39.94;93093.19;5082192;28;19924;-90
2023/03/18 11:42:20;;;;;;;;;;;;;;;17.20;39.81;93084.25;5082650;28;19981;-91
2023/03/18 11:44:46;;;;;;;;;;;;;;;17.20;39.80;93082.25;5083121;28;19924;-91
2023/03/18 11:47:13;;;;;;;;;;;;;;;17.19;39.40;93080.78;5064233;28;20488;-89
2023/03/18 11:49:38;;;;;;;;;;;;;;;17.20;39.91;93084.25;5065384;28;19932;-90
2023/03/18 11:52:03;;;;;;;;;;;;;;;17.18;39.76;93076.56;5065006;28;19928;-90
2023/03/18 11:54:40;;;;;;;;;;;;;;;17.19;39.95;93074.56;5062175;28;19982;-91
2023/03/18 11:57:09;;;;;;;;;;;;;;;17.19;39.74;93083.50;5065391;28;19989;-89
2023/03/18 11:59:49;;;;;;;;;;;;;;;17.19;39.80;93080.78;5082487;28;19936;-88
2023/03/18 12:02:21;;;;;;;;;;;;;;;17.20;39.69;93078.78;5065611;28;19999;-89
2023/03/18 12:04:52;;;;;;;;;;;;;;;17.20;39.55;93076.03;5064557;28;19924;-89
2023/03/18 12:07:36;;;;;;;;;;;;;;;17.21;39.60;93064.59;5051243;28;20380;-90
2023/03/18 12:10:19;;;;;;;;;;;;;;;17.21;39.52;93061.88;5028314;28;21720;-90
2023/03/18 12:12:58;;;;;;;;;;;;;;;17.20;39.56;93063.13;5062180;28;19929;-90
2023/03/18 12:15:42;;;;;;;;;;;;;;;17.23;39.73;93072.28;5045211;28;19924;-90
2023/03/18 12:18:07;;;;;;;;;;;;;;;17.24;39.64;93073.78;5096644;28;19928;-90
2023/03/18 12:20:39;;;;;;;;;;;;;;;17.25;39.82;93076.00;5055000;28;19995;-92
2023/03/18 12:23:23;;;;;;;;;;;;;;;17.27;39.44;93070.03;5045073;28;19936;-90
2023/03/18 12:26:08;;;;;;;;;;;;;;;17.28;40.01;93068.78;5078816;28;19932;-90
2023/03/18 12:28:41;;;;;;;;;;;;;;;17.28;39.58;93060.59;5044450;28;19921;-90
2023/03/18 12:31:16;;;;;;;;;;;;;;;17.29;39.52;93064.78;5061137;28;20298;-89
2023/03/18 12:33:50;;;;;;;;;;;;;;;17.28;39.51;93060.59;5064830;28;19924;-89
2023/03/18 12:36:24;;;;;;;;;;;;;;;17.28;39.50;93063.31;5082104;28;20353;-91
2023/03/18 12:38:50;;;;;;;;;;;;;;;17.28;39.97;93064.06;5065165;28;19927;-91
2023/03/18 12:41:28;;;;;;;;;;;;;;;17.29;39.62;93070.25;5051291;28;19959;-90
2023/03/18 12:44:06;;;;;;;;;;;;;;;17.28;39.91;93064.06;5045795;28;19948;-91
2023/03/18 12:46:35;;;;;;;;;;;;;;;17.28;39.76;93064.06;5044995;28;20035;-92
2023/03/18 12:49:09;;;;;;;;;;;;;;;17.27;39.77;93067.28;5017599;28;20027;-90